sensor_id;sensor_type;location;lat;lon;timestamp;pressure;altitude;pressure_sealevel;temperature;humidity
50702;BME280;36670;50.094;8.496;2023-05-23T00:01:37;100127.44;;;22.80;59.03
50702;BME280;36670;50.094;8.496;2023-05-23T00:04:03;100132.66;;;22.91;59.21
50702;BME280;36670;50.094;8.496;2023-05-23T00:06:28;100130.41;;;22.84;59.07
50702;BME280;36670;50.094;8.496;2023-05-23T00:08:53;100128.81;;;22.74;59.40
50702;BME280;36670;50.094;8.496;2023-05-23T00:11:18;100137.47;;;22.90;59.54
50702;BME280;36670;50.094;8.496;2023-05-23T00:13:44;100131.66;;;22.95;58.55
50702;BME280;36670;50.094;8.496;2023-05-23T00:16:09;100133.22;;;22.84;58.68
50702;BME280;36670;50.094;8.496;2023-05-23T00:18:35;100126.41;;;22.85;58.98
50702;BME280;36670;50.094;8.496;2023-05-23T00:21:01;100127.91;;;22.82;58.87
50702;BME280;36670;50.094;8.496;2023-05-23T00:23:26;100130.06;;;22.86;58.60
50702;BME280;36670;50.094;8.496;2023-05-23T00:25:53;100133.84;;;22.60;59.04
50702;BME280;36670;50.094;8.496;2023-05-23T00:28:19;100136.53;;;22.47;59.46
50702;BME280;36670;50.094;8.496;2023-05-23T00:30:44;100140.28;;;22.13;59.83
50702;BME280;36670;50.094;8.496;2023-05-23T00:33:09;100145.41;;;22.11;59.93
50702;BME280;36670;50.094;8.496;2023-05-23T00:35:38;100134.06;;;21.81;61.24
50702;BME280;36670;50.094;8.496;2023-05-23T00:38:03;100141.84;;;21.75;60.90
50702;BME280;36670;50.094;8.496;2023-05-23T00:40:28;100142.66;;;21.76;61.40
50702;BME280;36670;50.094;8.496;2023-05-23T00:42:53;100144.94;;;21.74;61.17
50702;BME280;36670;50.094;8.496;2023-05-23T00:45:19;100150.75;;;21.77;61.48
50702;BME280;36670;50.094;8.496;2023-05-23T00:47:44;100150.06;;;21.89;61.17
50702;BME280;36670;50.094;8.496;2023-05-23T00:50:10;100156.22;;;21.65;61.35
50702;BME280;36670;50.094;8.496;2023-05-23T00:52:36;100151.91;;;21.68;61.20
50702;BME280;36670;50.094;8.496;2023-05-23T00:55:02;100155.84;;;21.40;62.35
50702;BME280;36670;50.094;8.496;2023-05-23T00:57:27;100158.19;;;21.73;61.16
50702;BME280;36670;50.094;8.496;2023-05-23T00:59:52;100152.56;;;21.56;61.33
50702;BME280;36670;50.094;8.496;2023-05-23T01:02:18;100162.78;;;21.43;62.01
50702;BME280;36670;50.094;8.496;2023-05-23T01:04:45;100169.13;;;21.57;61.81
50702;BME280;36670;50.094;8.496;2023-05-23T01:07:10;100159.16;;;21.60;61.10
50702;BME280;36670;50.094;8.496;2023-05-23T01:09:36;100160.66;;;21.75;61.03
50702;BME280;36670;50.094;8.496;2023-05-23T01:12:19;100172.88;;;21.88;60.76
50702;BME280;36670;50.094;8.496;2023-05-23T01:17:16;100168.41;;;22.13;60.18
50702;BME280;36670;50.094;8.496;2023-05-23T01:20:02;100170.91;;;21.88;60.54
50702;BME280;36670;50.094;8.496;2023-05-23T01:22:36;100159.84;;;21.65;60.85
50702;BME280;36670;50.094;8.496;2023-05-23T01:25:10;100159.84;;;21.57;61.36
50702;BME280;36670;50.094;8.496;2023-05-23T01:27:52;100146.97;;;21.64;60.53
50702;BME280;36670;50.094;8.496;2023-05-23T01:30:19;100156.38;;;21.60;60.50
50702;BME280;36670;50.094;8.496;2023-05-23T01:32:45;100151.88;;;21.50;60.96
50702;BME280;36670;50.094;8.496;2023-05-23T01:35:11;100159.31;;;21.46;60.94
50702;BME280;36670;50.094;8.496;2023-05-23T01:37:38;100158.00;;;21.43;60.72
50702;BME280;36670;50.094;8.496;2023-05-23T01:40:04;100148.06;;;21.20;61.92
50702;BME280;36670;50.094;8.496;2023-05-23T01:42:30;100145.56;;;21.09;61.91
50702;BME280;36670;50.094;8.496;2023-05-23T01:44:55;100140.75;;;21.01;62.36
50702;BME280;36670;50.094;8.496;2023-05-23T01:47:23;100151.16;;;20.92;62.58
50702;BME280;36670;50.094;8.496;2023-05-23T01:49:48;100154.31;;;20.99;61.88
50702;BME280;36670;50.094;8.496;2023-05-23T01:52:14;100155.09;;;20.91;62.35
50702;BME280;36670;50.094;8.496;2023-05-23T01:54:40;100161.53;;;20.91;62.09
50702;BME280;36670;50.094;8.496;2023-05-23T01:57:06;100161.53;;;20.91;61.87
50702;BME280;36670;50.094;8.496;2023-05-23T01:59:31;100162.31;;;20.74;62.29
50702;BME280;36670;50.094;8.496;2023-05-23T02:01:56;100180.88;;;20.61;62.91
50702;BME280;36670;50.094;8.496;2023-05-23T02:04:22;100168.91;;;20.70;62.35
50702;BME280;36670;50.094;8.496;2023-05-23T02:06:47;100174.91;;;20.94;61.44
50702;BME280;36670;50.094;8.496;2023-05-23T02:09:12;100170.53;;;20.71;62.02
50702;BME280;36670;50.094;8.496;2023-05-23T02:11:37;100186.50;;;20.61;62.01
50702;BME280;36670;50.094;8.496;2023-05-23T02:14:03;100201.63;;;20.52;62.19
50702;BME280;36670;50.094;8.496;2023-05-23T02:16:28;100201.72;;;20.38;62.27
50702;BME280;36670;50.094;8.496;2023-05-23T02:18:53;100214.78;;;20.42;62.11
50702;BME280;36670;50.094;8.496;2023-05-23T02:21:20;100215.13;;;20.50;61.95
50702;BME280;36670;50.094;8.496;2023-05-23T02:23:45;100207.72;;;20.54;61.29
50702;BME280;36670;50.094;8.496;2023-05-23T02:26:10;100203.25;;;20.53;61.19
50702;BME280;36670;50.094;8.496;2023-05-23T02:28:35;100210.53;;;20.54;61.24
50702;BME280;36670;50.094;8.496;2023-05-23T02:31:01;100219.81;;;20.32;61.87
50702;BME280;36670;50.094;8.496;2023-05-23T02:33:26;100214.91;;;20.37;61.49
50702;BME280;36670;50.094;8.496;2023-05-23T02:35:51;100211.59;;;20.35;61.83
50702;BME280;36670;50.094;8.496;2023-05-23T02:38:17;100214.81;;;20.51;61.19
50702;BME280;36670;50.094;8.496;2023-05-23T02:40:44;100216.59;;;20.47;60.93
50702;BME280;36670;50.094;8.496;2023-05-23T02:43:09;100224.28;;;20.33;60.67
50702;BME280;36670;50.094;8.496;2023-05-23T02:45:34;100224.41;;;20.27;60.49
50702;BME280;36670;50.094;8.496;2023-05-23T02:47:59;100229.25;;;20.13;61.14
50702;BME280;36670;50.094;8.496;2023-05-23T02:50:25;100228.81;;;19.97;61.76
50702;BME280;36670;50.094;8.496;2023-05-23T02:52:50;100229.72;;;20.06;61.37
50702;BME280;36670;50.094;8.496;2023-05-23T02:55:15;100233.03;;;20.08;61.31
50702;BME280;36670;50.094;8.496;2023-05-23T02:57:40;100231.78;;;20.23;61.01
50702;BME280;36670;50.094;8.496;2023-05-23T03:00:06;100240.72;;;20.25;60.92
50702;BME280;36670;50.094;8.496;2023-05-23T03:02:31;100237.88;;;20.17;60.21
50702;BME280;36670;50.094;8.496;2023-05-23T03:04:56;100236.34;;;20.10;60.01
50702;BME280;36670;50.094;8.496;2023-05-23T03:07:21;100233.25;;;20.21;60.03
50702;BME280;36670;50.094;8.496;2023-05-23T03:09:46;100227.03;;;20.01;60.43
50702;BME280;36670;50.094;8.496;2023-05-23T03:12:12;100228.63;;;19.93;60.18
50702;BME280;36670;50.094;8.496;2023-05-23T03:14:37;100232.84;;;20.05;59.82
50702;BME280;36670;50.094;8.496;2023-05-23T03:17:02;100227.03;;;20.01;59.89
50702;BME280;36670;50.094;8.496;2023-05-23T03:19:28;100229.66;;;19.98;59.82
50702;BME280;36670;50.094;8.496;2023-05-23T03:21:53;100237.47;;;19.87;59.95
50702;BME280;36670;50.094;8.496;2023-05-23T03:24:18;100250.13;;;20.07;59.88
50702;BME280;36670;50.094;8.496;2023-05-23T03:26:43;100251.91;;;19.80;60.17
50702;BME280;36670;50.094;8.496;2023-05-23T03:29:09;100253.34;;;19.77;59.63
50702;BME280;36670;50.094;8.496;2023-05-23T03:31:35;100261.16;;;19.67;59.70
50702;BME280;36670;50.094;8.496;2023-05-23T03:34:00;100260.97;;;19.63;60.29
50702;BME280;36670;50.094;8.496;2023-05-23T03:36:25;100263.69;;;19.54;60.33
50702;BME280;36670;50.094;8.496;2023-05-23T03:38:52;100270.31;;;19.58;60.00
50702;BME280;36670;50.094;8.496;2023-05-23T03:41:17;100271.81;;;19.78;60.13
50702;BME280;36670;50.094;8.496;2023-05-23T03:43:42;100270.78;;;19.74;60.17
50702;BME280;36670;50.094;8.496;2023-05-23T03:46:08;100274.75;;;20.10;59.24
50702;BME280;36670;50.094;8.496;2023-05-23T03:48:33;100277.47;;;19.51;60.34
50702;BME280;36670;50.094;8.496;2023-05-23T03:50:58;100282.50;;;19.76;59.72
50702;BME280;36670;50.094;8.496;2023-05-23T03:53:23;100279.09;;;19.80;59.79
50702;BME280;36670;50.094;8.496;2023-05-23T03:55:48;100274.16;;;20.22;58.97
50702;BME280;36670;50.094;8.496;2023-05-23T03:58:13;100301.84;;;19.64;59.19
50702;BME280;36670;50.094;8.496;2023-05-23T04:00:39;100291.81;;;19.35;59.66
50702;BME280;36670;50.094;8.496;2023-05-23T04:03:04;100292.84;;;19.39;59.45
50702;BME280;36670;50.094;8.496;2023-05-23T04:05:29;100292.41;;;19.60;59.57
50702;BME280;36670;50.094;8.496;2023-05-23T04:07:55;100293.03;;;20.07;58.36
50702;BME280;36670;50.094;8.496;2023-05-23T04:10:21;100300.16;;;20.13;57.91
50702;BME280;36670;50.094;8.496;2023-05-23T04:12:46;100297.25;;;20.19;56.91
50702;BME280;36670;50.094;8.496;2023-05-23T04:15:11;100295.78;;;20.21;56.01
50702;BME280;36670;50.094;8.496;2023-05-23T04:17:36;100297.25;;;20.19;56.25
50702;BME280;36670;50.094;8.496;2023-05-23T04:20:03;100289.38;;;21.06;55.12
50702;BME280;36670;50.094;8.496;2023-05-23T04:22:29;100297.44;;;21.39;54.64
50702;BME280;36670;50.094;8.496;2023-05-23T04:24:54;100300.56;;;20.97;53.62
50702;BME280;36670;50.094;8.496;2023-05-23T04:27:19;100304.69;;;20.46;54.65
50702;BME280;36670;50.094;8.496;2023-05-23T04:29:46;100311.69;;;20.80;54.12
50702;BME280;36670;50.094;8.496;2023-05-23T04:32:11;100315.91;;;20.23;54.60
50702;BME280;36670;50.094;8.496;2023-05-23T04:34:37;100322.31;;;20.01;55.65
50702;BME280;36670;50.094;8.496;2023-05-23T04:37:02;100313.94;;;20.24;55.15
50702;BME280;36670;50.094;8.496;2023-05-23T04:39:30;100321.19;;;19.74;55.98
50702;BME280;36670;50.094;8.496;2023-05-23T04:41:55;100317.88;;;20.00;55.89
50702;BME280;36670;50.094;8.496;2023-05-23T04:44:23;100324.88;;;20.11;55.97
50702;BME280;36670;50.094;8.496;2023-05-23T04:46:50;100327.16;;;20.69;54.83
50702;BME280;36670;50.094;8.496;2023-05-23T04:49:15;100337.00;;;21.20;53.25
50702;BME280;36670;50.094;8.496;2023-05-23T04:51:41;100337.38;;;21.36;52.79
50702;BME280;36670;50.094;8.496;2023-05-23T04:54:06;100338.63;;;21.53;52.69
50702;BME280;36670;50.094;8.496;2023-05-23T04:56:31;100338.97;;;21.20;51.96
50702;BME280;36670;50.094;8.496;2023-05-23T04:58:56;100341.31;;;21.26;52.25
50702;BME280;36670;50.094;8.496;2023-05-23T05:01:22;100337.97;;;21.16;52.62
50702;BME280;36670;50.094;8.496;2023-05-23T05:03:50;100337.06;;;20.52;54.04
50702;BME280;36670;50.094;8.496;2023-05-23T05:06:15;100338.25;;;20.74;53.19
50702;BME280;36670;50.094;8.496;2023-05-23T05:08:41;100348.59;;;20.51;53.67
50702;BME280;36670;50.094;8.496;2023-05-23T05:11:06;100338.78;;;20.62;53.67
50702;BME280;36670;50.094;8.496;2023-05-23T05:13:31;100342.81;;;20.92;52.58
50702;BME280;36670;50.094;8.496;2023-05-23T05:15:56;100343.34;;;22.01;52.70
50702;BME280;36670;50.094;8.496;2023-05-23T05:18:22;100338.75;;;23.31;49.07
50702;BME280;36670;50.094;8.496;2023-05-23T05:20:48;100328.16;;;23.88;47.57
50702;BME280;36670;50.094;8.496;2023-05-23T05:23:13;100329.81;;;24.52;45.80
50702;BME280;36670;50.094;8.496;2023-05-23T05:25:38;100336.22;;;24.19;44.89
50702;BME280;36670;50.094;8.496;2023-05-23T05:28:05;100352.66;;;23.96;44.36
50702;BME280;36670;50.094;8.496;2023-05-23T05:30:30;100352.59;;;22.80;47.06
50702;BME280;36670;50.094;8.496;2023-05-23T05:32:59;100355.78;;;22.53;48.00
50702;BME280;36670;50.094;8.496;2023-05-23T05:35:25;100353.44;;;22.72;46.91
50702;BME280;36670;50.094;8.496;2023-05-23T05:37:51;100369.81;;;22.26;48.22
50702;BME280;36670;50.094;8.496;2023-05-23T05:40:16;100364.69;;;22.20;48.70
50702;BME280;36670;50.094;8.496;2023-05-23T05:42:41;100371.34;;;22.32;47.47
50702;BME280;36670;50.094;8.496;2023-05-23T05:45:06;100376.13;;;22.14;48.72
50702;BME280;36670;50.094;8.496;2023-05-23T05:47:32;100372.22;;;21.67;48.82
50702;BME280;36670;50.094;8.496;2023-05-23T05:49:57;100369.91;;;21.69;48.89
50702;BME280;36670;50.094;8.496;2023-05-23T05:52:22;100374.19;;;21.66;49.04
50702;BME280;36670;50.094;8.496;2023-05-23T05:54:47;100383.22;;;22.21;49.01
50702;BME280;36670;50.094;8.496;2023-05-23T05:57:12;100378.28;;;22.09;48.32
50702;BME280;36670;50.094;8.496;2023-05-23T05:59:37;100388.84;;;22.12;48.34
50702;BME280;36670;50.094;8.496;2023-05-23T06:02:02;100393.88;;;21.66;48.31
50702;BME280;36670;50.094;8.496;2023-05-23T06:04:28;100394.69;;;21.04;49.79
50702;BME280;36670;50.094;8.496;2023-05-23T06:06:53;100402.56;;;20.93;50.01
50702;BME280;36670;50.094;8.496;2023-05-23T06:09:18;100398.81;;;20.38;51.41
50702;BME280;36670;50.094;8.496;2023-05-23T06:11:43;100404.53;;;19.97;52.12
50702;BME280;36670;50.094;8.496;2023-05-23T06:14:09;100409.28;;;19.68;52.61
50702;BME280;36670;50.094;8.496;2023-05-23T06:16:34;100402.88;;;19.82;53.00
50702;BME280;36670;50.094;8.496;2023-05-23T06:18:59;100409.84;;;20.21;52.37
50702;BME280;36670;50.094;8.496;2023-05-23T06:21:24;100411.44;;;20.50;52.44
50702;BME280;36670;50.094;8.496;2023-05-23T06:23:49;100418.13;;;20.76;51.26
50702;BME280;36670;50.094;8.496;2023-05-23T06:26:15;100415.31;;;20.76;51.37
50702;BME280;36670;50.094;8.496;2023-05-23T06:28:40;100413.78;;;20.93;51.08
50702;BME280;36670;50.094;8.496;2023-05-23T06:31:05;100410.19;;;20.56;51.25
50702;BME280;36670;50.094;8.496;2023-05-23T06:33:31;100401.00;;;20.78;51.58
50702;BME280;36670;50.094;8.496;2023-05-23T06:35:56;100409.16;;;20.52;51.60
50702;BME280;36670;50.094;8.496;2023-05-23T06:38:21;100411.88;;;20.79;51.80
50702;BME280;36670;50.094;8.496;2023-05-23T06:40:47;100409.22;;;20.60;51.78
50702;BME280;36670;50.094;8.496;2023-05-23T06:43:12;100404.75;;;20.59;52.25
50702;BME280;36670;50.094;8.496;2023-05-23T06:45:37;100406.47;;;20.46;52.06
50702;BME280;36670;50.094;8.496;2023-05-23T06:48:03;100421.72;;;20.54;52.61
50702;BME280;36670;50.094;8.496;2023-05-23T06:50:28;100410.88;;;20.75;52.35
50702;BME280;36670;50.094;8.496;2023-05-23T06:52:53;100412.59;;;20.85;51.56
50702;BME280;36670;50.094;8.496;2023-05-23T06:55:18;100424.13;;;20.47;52.35
50702;BME280;36670;50.094;8.496;2023-05-23T06:57:44;100420.09;;;20.98;51.91
50702;BME280;36670;50.094;8.496;2023-05-23T07:00:10;100430.75;;;21.10;51.60
50702;BME280;36670;50.094;8.496;2023-05-23T07:02:37;100423.88;;;20.94;51.75
50702;BME280;36670;50.094;8.496;2023-05-23T07:05:02;100425.94;;;21.11;51.90
50702;BME280;36670;50.094;8.496;2023-05-23T07:07:28;100429.56;;;21.34;50.95
50702;BME280;36670;50.094;8.496;2023-05-23T07:09:53;100443.56;;;21.25;51.54
50702;BME280;36670;50.094;8.496;2023-05-23T07:12:18;100417.59;;;20.97;52.22
50702;BME280;36670;50.094;8.496;2023-05-23T07:14:43;100412.25;;;21.41;52.25
50702;BME280;36670;50.094;8.496;2023-05-23T07:17:08;100415.91;;;21.81;51.37
50702;BME280;36670;50.094;8.496;2023-05-23T07:19:33;100425.91;;;21.65;51.49
50702;BME280;36670;50.094;8.496;2023-05-23T07:21:59;100426.38;;;21.27;51.29
50702;BME280;36670;50.094;8.496;2023-05-23T07:24:24;100432.41;;;20.89;52.34
50702;BME280;36670;50.094;8.496;2023-05-23T07:26:49;100427.50;;;20.94;52.11
50702;BME280;36670;50.094;8.496;2023-05-23T07:29:14;100427.81;;;20.70;52.43
50702;BME280;36670;50.094;8.496;2023-05-23T07:31:40;100446.25;;;20.49;53.32
50702;BME280;36670;50.094;8.496;2023-05-23T07:34:05;100447.97;;;20.22;54.19
50702;BME280;36670;50.094;8.496;2023-05-23T07:36:30;100447.69;;;20.60;53.87
50702;BME280;36670;50.094;8.496;2023-05-23T07:38:58;100433.25;;;20.53;54.07
50702;BME280;36670;50.094;8.496;2023-05-23T07:41:23;100441.19;;;21.19;53.26
50702;BME280;36670;50.094;8.496;2023-05-23T07:43:48;100434.38;;;20.88;52.71
50702;BME280;36670;50.094;8.496;2023-05-23T07:46:13;100436.97;;;21.30;52.11
50702;BME280;36670;50.094;8.496;2023-05-23T07:48:39;100437.84;;;21.39;52.53
50702;BME280;36670;50.094;8.496;2023-05-23T07:51:04;100436.31;;;21.33;51.74
50702;BME280;36670;50.094;8.496;2023-05-23T07:53:29;100447.94;;;21.72;52.13
50702;BME280;36670;50.094;8.496;2023-05-23T07:55:55;100440.28;;;21.63;50.87
50702;BME280;36670;50.094;8.496;2023-05-23T07:58:20;100447.53;;;21.56;51.44
50702;BME280;36670;50.094;8.496;2023-05-23T08:00:47;100445.38;;;21.53;51.08
50702;BME280;36670;50.094;8.496;2023-05-23T08:03:12;100443.06;;;21.55;51.20
50702;BME280;36670;50.094;8.496;2023-05-23T08:05:38;100441.66;;;21.75;52.27
50702;BME280;36670;50.094;8.496;2023-05-23T08:08:03;100443.00;;;22.61;50.86
50702;BME280;36670;50.094;8.496;2023-05-23T08:10:28;100431.06;;;23.26;49.82
50702;BME280;36670;50.094;8.496;2023-05-23T08:12:53;100439.84;;;23.15;48.64
50702;BME280;36670;50.094;8.496;2023-05-23T08:15:19;100448.13;;;22.77;48.43
50702;BME280;36670;50.094;8.496;2023-05-23T08:17:44;100451.13;;;22.72;48.48
50702;BME280;36670;50.094;8.496;2023-05-23T08:20:09;100459.75;;;22.58;48.56
50702;BME280;36670;50.094;8.496;2023-05-23T08:22:36;100461.97;;;22.29;49.50
50702;BME280;36670;50.094;8.496;2023-05-23T08:25:01;100456.34;;;22.21;49.66
50702;BME280;36670;50.094;8.496;2023-05-23T08:27:27;100461.72;;;22.40;49.28
50702;BME280;36670;50.094;8.496;2023-05-23T08:29:54;100462.38;;;22.45;49.14
50702;BME280;36670;50.094;8.496;2023-05-23T08:32:19;100451.56;;;22.30;49.39
50702;BME280;36670;50.094;8.496;2023-05-23T08:34:44;100453.19;;;22.22;49.55
50702;BME280;36670;50.094;8.496;2023-05-23T08:37:10;100451.22;;;22.23;49.65
50702;BME280;36670;50.094;8.496;2023-05-23T08:39:35;100445.66;;;22.93;49.70
50702;BME280;36670;50.094;8.496;2023-05-23T08:42:00;100443.31;;;23.21;48.71
50702;BME280;36670;50.094;8.496;2023-05-23T08:44:25;100450.63;;;23.69;48.13
50702;BME280;36670;50.094;8.496;2023-05-23T08:46:51;100440.59;;;23.81;46.96
50702;BME280;36670;50.094;8.496;2023-05-23T08:49:17;100446.19;;;23.60;46.72
50702;BME280;36670;50.094;8.496;2023-05-23T08:51:42;100451.94;;;23.25;47.21
50702;BME280;36670;50.094;8.496;2023-05-23T08:54:08;100450.13;;;22.94;47.43
50702;BME280;36670;50.094;8.496;2023-05-23T08:56:35;100449.63;;;22.92;47.27
50702;BME280;36670;50.094;8.496;2023-05-23T08:59:00;100452.44;;;22.65;47.36
50702;BME280;36670;50.094;8.496;2023-05-23T09:01:26;100455.09;;;22.36;48.55
50702;BME280;36670;50.094;8.496;2023-05-23T09:03:51;100460.97;;;22.16;48.47
50702;BME280;36670;50.094;8.496;2023-05-23T09:06:16;100461.56;;;21.96;49.21
50702;BME280;36670;50.094;8.496;2023-05-23T09:08:45;100462.81;;;21.72;49.79
50702;BME280;36670;50.094;8.496;2023-05-23T09:11:10;100462.56;;;21.60;50.28
50702;BME280;36670;50.094;8.496;2023-05-23T09:13:37;100473.34;;;21.67;50.46
50702;BME280;36670;50.094;8.496;2023-05-23T09:16:04;100469.44;;;21.45;50.82
50702;BME280;36670;50.094;8.496;2023-05-23T09:18:34;100476.84;;;21.41;51.37
50702;BME280;36670;50.094;8.496;2023-05-23T09:21:00;100477.69;;;21.50;50.94
50702;BME280;36670;50.094;8.496;2023-05-23T09:23:28;100470.91;;;21.42;51.19
50702;BME280;36670;50.094;8.496;2023-05-23T09:25:53;100476.63;;;21.06;51.72
50702;BME280;36670;50.094;8.496;2023-05-23T09:28:18;100472.94;;;21.51;51.18
50702;BME280;36670;50.094;8.496;2023-05-23T09:30:44;100466.91;;;21.66;51.30
50702;BME280;36670;50.094;8.496;2023-05-23T09:33:09;100471.72;;;22.14;50.53
50702;BME280;36670;50.094;8.496;2023-05-23T09:35:36;100471.16;;;22.70;49.81
50702;BME280;36670;50.094;8.496;2023-05-23T09:38:07;100465.19;;;23.15;49.77
50702;BME280;36670;50.094;8.496;2023-05-23T09:40:32;100462.19;;;23.21;48.91
50702;BME280;36670;50.094;8.496;2023-05-23T09:43:04;100452.97;;;23.67;47.47
50702;BME280;36670;50.094;8.496;2023-05-23T09:45:31;100460.03;;;23.26;46.87
50702;BME280;36670;50.094;8.496;2023-05-23T09:47:57;100456.22;;;23.31;46.39
50702;BME280;36670;50.094;8.496;2023-05-23T09:50:22;100459.47;;;23.50;46.00
50702;BME280;36670;50.094;8.496;2023-05-23T09:52:48;100456.41;;;23.17;45.68
50702;BME280;36670;50.094;8.496;2023-05-23T09:55:13;100459.53;;;23.07;47.04
50702;BME280;36670;50.094;8.496;2023-05-23T09:57:39;100457.56;;;23.25;47.20
50702;BME280;36670;50.094;8.496;2023-05-23T10:00:05;100463.72;;;22.74;47.23
50702;BME280;36670;50.094;8.496;2023-05-23T10:02:57;100468.84;;;22.63;47.39
50702;BME280;36670;50.094;8.496;2023-05-23T10:05:45;100474.72;;;22.27;48.37
50702;BME280;36670;50.094;8.496;2023-05-23T10:08:53;100480.56;;;22.39;49.16
50702;BME280;36670;50.094;8.496;2023-05-23T10:13:40;100483.69;;;21.89;49.94
50702;BME280;36670;50.094;8.496;2023-05-23T10:16:12;100493.03;;;22.07;49.25
50702;BME280;36670;50.094;8.496;2023-05-23T10:18:40;100488.44;;;21.79;49.72
50702;BME280;36670;50.094;8.496;2023-05-23T10:21:08;100496.03;;;21.70;49.99
50702;BME280;36670;50.094;8.496;2023-05-23T10:23:35;100492.16;;;21.35;50.66
50702;BME280;36670;50.094;8.496;2023-05-23T10:26:01;100491.22;;;21.39;50.18
50702;BME280;36670;50.094;8.496;2023-05-23T10:28:27;100487.31;;;21.80;49.78
50702;BME280;36670;50.094;8.496;2023-05-23T10:30:52;100490.97;;;21.81;49.79
50702;BME280;36670;50.094;8.496;2023-05-23T10:33:18;100493.34;;;21.96;49.66
50702;BME280;36670;50.094;8.496;2023-05-23T10:35:49;100499.19;;;22.17;49.09
50702;BME280;36670;50.094;8.496;2023-05-23T10:46:19;100490.34;;;22.68;47.85
50702;BME280;36670;50.094;8.496;2023-05-23T10:48:45;100488.84;;;22.53;48.11
50702;BME280;36670;50.094;8.496;2023-05-23T10:51:11;100492.91;;;22.29;49.26
50702;BME280;36670;50.094;8.496;2023-05-23T10:53:37;100492.47;;;22.45;48.50
50702;BME280;36670;50.094;8.496;2023-05-23T10:56:06;100487.16;;;22.35;48.02
50702;BME280;36670;50.094;8.496;2023-05-23T10:58:32;100502.94;;;22.04;49.65
50702;BME280;36670;50.094;8.496;2023-05-23T11:01:04;100510.09;;;21.79;50.01
50702;BME280;36670;50.094;8.496;2023-05-23T11:05:59;100509.41;;;21.64;50.60
50702;BME280;36670;50.094;8.496;2023-05-23T11:08:25;100511.34;;;21.64;50.22
50702;BME280;36670;50.094;8.496;2023-05-23T11:10:51;100510.63;;;21.81;50.48
50702;BME280;36670;50.094;8.496;2023-05-23T11:13:17;100509.94;;;21.75;51.19
50702;BME280;36670;50.094;8.496;2023-05-23T11:15:42;100511.56;;;22.08;50.89
50702;BME280;36670;50.094;8.496;2023-05-23T11:18:09;100508.75;;;22.16;50.25
50702;BME280;36670;50.094;8.496;2023-05-23T11:20:43;100507.88;;;22.47;50.63
50702;BME280;36670;50.094;8.496;2023-05-23T11:23:09;100509.25;;;22.76;50.20
50702;BME280;36670;50.094;8.496;2023-05-23T11:28:07;100505.44;;;22.55;49.21
50702;BME280;36670;50.094;8.496;2023-05-23T11:30:33;100505.28;;;22.20;49.31
50702;BME280;36670;50.094;8.496;2023-05-23T11:32:58;100504.63;;;21.74;49.80
50702;BME280;36670;50.094;8.496;2023-05-23T11:35:24;100496.25;;;21.82;50.39
50702;BME280;36670;50.094;8.496;2023-05-23T11:37:49;100481.63;;;22.12;49.44
50702;BME280;36670;50.094;8.496;2023-05-23T11:40:25;100494.34;;;22.09;49.53
50702;BME280;36670;50.094;8.496;2023-05-23T11:42:50;100499.53;;;21.76;50.15
50702;BME280;36670;50.094;8.496;2023-05-23T11:45:18;100497.03;;;22.14;50.55
50702;BME280;36670;50.094;8.496;2023-05-23T11:47:43;100502.66;;;22.14;50.24
50702;BME280;36670;50.094;8.496;2023-05-23T11:50:09;100509.09;;;22.24;49.25
50702;BME280;36670;50.094;8.496;2023-05-23T11:52:34;100518.13;;;22.35;49.24
50702;BME280;36670;50.094;8.496;2023-05-23T11:55:00;100511.72;;;22.78;48.80
50702;BME280;36670;50.094;8.496;2023-05-23T11:57:25;100518.19;;;23.22;48.43
50702;BME280;36670;50.094;8.496;2023-05-23T11:59:50;100511.47;;;23.71;47.25
50702;BME280;36670;50.094;8.496;2023-05-23T12:02:15;100515.91;;;23.89;46.06
50702;BME280;36670;50.094;8.496;2023-05-23T12:04:40;100504.00;;;23.66;45.75
50702;BME280;36670;50.094;8.496;2023-05-23T12:07:06;100498.97;;;23.89;45.85
50702;BME280;36670;50.094;8.496;2023-05-23T12:09:31;100503.19;;;23.65;45.18
50702;BME280;36670;50.094;8.496;2023-05-23T12:11:56;100504.81;;;23.75;45.13
50702;BME280;36670;50.094;8.496;2023-05-23T12:14:21;100499.63;;;23.39;44.84
50702;BME280;36670;50.094;8.496;2023-05-23T12:16:47;100499.31;;;23.31;46.23
50702;BME280;36670;50.094;8.496;2023-05-23T12:19:12;100506.25;;;23.25;46.13
50702;BME280;36670;50.094;8.496;2023-05-23T12:24:13;100501.28;;;23.31;46.38
50702;BME280;36670;50.094;8.496;2023-05-23T12:26:45;100519.38;;;23.12;46.10
50702;BME280;36670;50.094;8.496;2023-05-23T12:29:10;100517.84;;;23.32;45.90
50702;BME280;36670;50.094;8.496;2023-05-23T12:31:36;100523.81;;;23.40;46.40
50702;BME280;36670;50.094;8.496;2023-05-23T12:34:01;100521.31;;;23.38;45.68
50702;BME280;36670;50.094;8.496;2023-05-23T12:36:26;100528.28;;;23.06;46.08
50702;BME280;36670;50.094;8.496;2023-05-23T12:39:00;100518.84;;;23.45;46.03
50702;BME280;36670;50.094;8.496;2023-05-23T12:41:25;100518.63;;;23.50;44.68
50702;BME280;36670;50.094;8.496;2023-05-23T12:43:51;100519.16;;;23.44;45.12
50702;BME280;36670;50.094;8.496;2023-05-23T12:46:17;100523.50;;;23.24;44.66
50702;BME280;36670;50.094;8.496;2023-05-23T12:48:42;100517.16;;;23.44;44.63
50702;BME280;36670;50.094;8.496;2023-05-23T12:51:08;100531.25;;;22.92;45.67
50702;BME280;36670;50.094;8.496;2023-05-23T12:53:33;100531.03;;;21.95;47.07
50702;BME280;36670;50.094;8.496;2023-05-23T12:55:58;100532.94;;;22.17;47.12
50702;BME280;36670;50.094;8.496;2023-05-23T12:58:24;100539.22;;;22.14;47.11
50702;BME280;36670;50.094;8.496;2023-05-23T13:00:49;100532.25;;;22.12;46.68
50702;BME280;36670;50.094;8.496;2023-05-23T13:03:14;100528.41;;;21.99;46.58
50702;BME280;36670;50.094;8.496;2023-05-23T13:05:40;100529.25;;;22.08;47.03